sensor_id;sensor_type;location;lat;lon;timestamp;P1;durP1;ratioP1;P2;durP2;ratioP2
10705;SDS011;5404;42.656;23.336;2022-07-06T00:00:01;18.65;;;16.85;;
10705;SDS011;5404;42.656;23.336;2022-07-06T00:02:26;16.42;;;14.23;;
10705;SDS011;5404;42.656;23.336;2022-07-06T00:04:51;16.42;;;14.90;;
10705;SDS011;5404;42.656;23.336;2022-07-06T00:07:17;15.60;;;14.20;;
10705;SDS011;5404;42.656;23.336;2022-07-06T00:09:42;15.88;;;14.38;;
10705;SDS011;5404;42.656;23.336;2022-07-06T00:12:08;18.15;;;16.23;;
10705;SDS011;5404;42.656;23.336;2022-07-06T00:14:34;18.92;;;15.82;;
10705;SDS011;5404;42.656;23.336;2022-07-06T00:17:00;17.23;;;15.73;;
10705;SDS011;5404;42.656;23.336;2022-07-06T00:19:25;17.02;;;15.38;;
10705;SDS011;5404;42.656;23.336;2022-07-06T00:21:51;17.60;;;15.95;;
10705;SDS011;5404;42.656;23.336;2022-07-06T00:24:16;16.90;;;15.18;;
10705;SDS011;5404;42.656;23.336;2022-07-06T00:26:43;17.63;;;15.55;;
10705;SDS011;5404;42.656;23.336;2022-07-06T00:29:09;18.00;;;16.30;;
10705;SDS011;5404;42.656;23.336;2022-07-06T00:31:35;16.77;;;15.07;;
10705;SDS011;5404;42.656;23.336;2022-07-06T00:34:00;16.33;;;14.82;;
10705;SDS011;5404;42.656;23.336;2022-07-06T00:36:26;17.60;;;15.90;;
10705;SDS011;5404;42.656;23.336;2022-07-06T00:38:52;18.92;;;17.15;;
10705;SDS011;5404;42.656;23.336;2022-07-06T00:41:17;18.42;;;16.63;;
10705;SDS011;5404;42.656;23.336;2022-07-06T00:43:47;18.60;;;16.90;;
10705;SDS011;5404;42.656;23.336;2022-07-06T00:46:13;19.00;;;17.02;;
10705;SDS011;5404;42.656;23.336;2022-07-06T00:48:39;18.90;;;17.08;;
10705;SDS011;5404;42.656;23.336;2022-07-06T00:51:04;20.27;;;17.83;;
10705;SDS011;5404;42.656;23.336;2022-07-06T00:53:30;19.00;;;17.10;;
10705;SDS011;5404;42.656;23.336;2022-07-06T00:55:55;18.88;;;17.05;;
10705;SDS011;5404;42.656;23.336;2022-07-06T00:58:21;20.70;;;18.55;;
10705;SDS011;5404;42.656;23.336;2022-07-06T01:00:46;20.42;;;18.25;;
10705;SDS011;5404;42.656;23.336;2022-07-06T01:03:12;21.95;;;19.75;;
10705;SDS011;5404;42.656;23.336;2022-07-06T01:05:37;22.42;;;20.10;;
10705;SDS011;5404;42.656;23.336;2022-07-06T01:08:03;22.42;;;20.08;;
10705;SDS011;5404;42.656;23.336;2022-07-06T01:10:29;24.80;;;21.83;;
10705;SDS011;5404;42.656;23.336;2022-07-06T01:12:55;25.25;;;22.38;;
10705;SDS011;5404;42.656;23.336;2022-07-06T01:15:22;24.30;;;22.00;;
10705;SDS011;5404;42.656;23.336;2022-07-06T01:17:49;26.45;;;23.75;;
10705;SDS011;5404;42.656;23.336;2022-07-06T01:22:44;26.45;;;22.83;;
10705;SDS011;5404;42.656;23.336;2022-07-06T01:25:11;27.33;;;23.17;;
10705;SDS011;5404;42.656;23.336;2022-07-06T01:27:38;27.50;;;23.35;;
10705;SDS011;5404;42.656;23.336;2022-07-06T01:30:05;26.05;;;23.45;;
10705;SDS011;5404;42.656;23.336;2022-07-06T01:32:32;30.08;;;25.42;;
10705;SDS011;5404;42.656;23.336;2022-07-06T01:34:57;33.28;;;26.38;;
10705;SDS011;5404;42.656;23.336;2022-07-06T01:37:23;36.53;;;27.92;;
10705;SDS011;5404;42.656;23.336;2022-07-06T01:39:48;33.10;;;27.13;;
10705;SDS011;5404;42.656;23.336;2022-07-06T01:42:14;32.97;;;25.58;;
10705;SDS011;5404;42.656;23.336;2022-07-06T01:44:39;28.90;;;24.92;;
10705;SDS011;5404;42.656;23.336;2022-07-06T01:47:04;28.67;;;23.33;;
10705;SDS011;5404;42.656;23.336;2022-07-06T01:49:30;30.38;;;22.48;;
10705;SDS011;5404;42.656;23.336;2022-07-06T01:51:56;30.08;;;23.60;;
10705;SDS011;5404;42.656;23.336;2022-07-06T01:54:21;29.92;;;23.83;;
10705;SDS011;5404;42.656;23.336;2022-07-06T01:56:47;30.02;;;22.60;;
10705;SDS011;5404;42.656;23.336;2022-07-06T01:59:12;27.38;;;21.40;;
10705;SDS011;5404;42.656;23.336;2022-07-06T02:01:38;27.35;;;22.65;;
10705;SDS011;5404;42.656;23.336;2022-07-06T02:04:03;23.00;;;19.38;;
10705;SDS011;5404;42.656;23.336;2022-07-06T02:06:29;21.55;;;18.70;;
10705;SDS011;5404;42.656;23.336;2022-07-06T02:08:54;18.95;;;15.93;;
10705;SDS011;5404;42.656;23.336;2022-07-06T02:11:20;18.45;;;15.32;;
10705;SDS011;5404;42.656;23.336;2022-07-06T02:13:45;19.23;;;15.52;;
10705;SDS011;5404;42.656;23.336;2022-07-06T02:16:11;15.07;;;13.48;;
10705;SDS011;5404;42.656;23.336;2022-07-06T02:18:36;16.65;;;15.05;;
10705;SDS011;5404;42.656;23.336;2022-07-06T02:21:03;17.75;;;14.48;;
10705;SDS011;5404;42.656;23.336;2022-07-06T02:23:29;16.65;;;15.00;;
10705;SDS011;5404;42.656;23.336;2022-07-06T02:25:54;14.98;;;12.93;;
10705;SDS011;5404;42.656;23.336;2022-07-06T02:28:20;14.85;;;13.25;;
10705;SDS011;5404;42.656;23.336;2022-07-06T02:30:45;15.70;;;14.02;;
10705;SDS011;5404;42.656;23.336;2022-07-06T02:33:10;14.88;;;13.40;;
10705;SDS011;5404;42.656;23.336;2022-07-06T02:35:36;15.43;;;13.82;;
10705;SDS011;5404;42.656;23.336;2022-07-06T02:38:07;14.43;;;12.88;;
10705;SDS011;5404;42.656;23.336;2022-07-06T02:40:32;14.45;;;12.95;;
10705;SDS011;5404;42.656;23.336;2022-07-06T02:42:58;16.80;;;13.60;;
10705;SDS011;5404;42.656;23.336;2022-07-06T02:45:23;15.25;;;13.85;;
10705;SDS011;5404;42.656;23.336;2022-07-06T02:47:48;15.02;;;13.50;;
10705;SDS011;5404;42.656;23.336;2022-07-06T02:50:15;17.23;;;13.38;;
10705;SDS011;5404;42.656;23.336;2022-07-06T02:52:41;16.00;;;13.40;;
10705;SDS011;5404;42.656;23.336;2022-07-06T02:55:07;20.77;;;14.98;;
10705;SDS011;5404;42.656;23.336;2022-07-06T02:57:33;17.52;;;13.88;;
10705;SDS011;5404;42.656;23.336;2022-07-06T02:59:58;15.43;;;13.82;;
10705;SDS011;5404;42.656;23.336;2022-07-06T03:02:24;15.50;;;14.00;;
10705;SDS011;5404;42.656;23.336;2022-07-06T03:04:49;18.58;;;14.30;;
10705;SDS011;5404;42.656;23.336;2022-07-06T03:07:15;18.52;;;14.35;;
10705;SDS011;5404;42.656;23.336;2022-07-06T03:09:40;17.90;;;16.13;;
10705;SDS011;5404;42.656;23.336;2022-07-06T03:12:07;17.50;;;15.65;;
10705;SDS011;5404;42.656;23.336;2022-07-06T03:14:32;17.85;;;15.48;;
10705;SDS011;5404;42.656;23.336;2022-07-06T03:16:58;19.08;;;15.30;;
10705;SDS011;5404;42.656;23.336;2022-07-06T03:19:23;17.77;;;15.75;;
10705;SDS011;5404;42.656;23.336;2022-07-06T03:21:49;17.35;;;14.35;;
10705;SDS011;5404;42.656;23.336;2022-07-06T03:24:14;19.20;;;15.05;;
10705;SDS011;5404;42.656;23.336;2022-07-06T03:26:40;16.50;;;14.80;;
10705;SDS011;5404;42.656;23.336;2022-07-06T03:29:05;15.48;;;13.98;;
10705;SDS011;5404;42.656;23.336;2022-07-06T03:31:31;20.52;;;14.38;;
10705;SDS011;5404;42.656;23.336;2022-07-06T03:33:56;16.45;;;14.75;;
10705;SDS011;5404;42.656;23.336;2022-07-06T03:36:22;18.25;;;15.45;;
10705;SDS011;5404;42.656;23.336;2022-07-06T03:38:48;16.33;;;14.73;;
10705;SDS011;5404;42.656;23.336;2022-07-06T03:41:13;16.92;;;15.15;;
10705;SDS011;5404;42.656;23.336;2022-07-06T03:43:39;16.83;;;14.15;;
10705;SDS011;5404;42.656;23.336;2022-07-06T03:46:04;16.00;;;14.35;;
10705;SDS011;5404;42.656;23.336;2022-07-06T03:48:30;12.30;;;11.15;;
10705;SDS011;5404;42.656;23.336;2022-07-06T03:50:55;12.13;;;10.40;;
10705;SDS011;5404;42.656;23.336;2022-07-06T03:53:21;10.75;;;9.77;;
10705;SDS011;5404;42.656;23.336;2022-07-06T03:55:46;10.07;;;8.57;;
10705;SDS011;5404;42.656;23.336;2022-07-06T03:58:32;9.20;;;8.27;;
10705;SDS011;5404;42.656;23.336;2022-07-06T04:00:58;8.90;;;7.18;;
10705;SDS011;5404;42.656;23.336;2022-07-06T04:03:23;8.93;;;6.80;;
10705;SDS011;5404;42.656;23.336;2022-07-06T04:05:49;7.25;;;6.50;;
10705;SDS011;5404;42.656;23.336;2022-07-06T04:08:14;11.10;;;6.35;;
10705;SDS011;5404;42.656;23.336;2022-07-06T04:10:40;7.60;;;6.80;;
10705;SDS011;5404;42.656;23.336;2022-07-06T04:13:05;7.60;;;6.25;;
10705;SDS011;5404;42.656;23.336;2022-07-06T04:15:31;6.80;;;6.28;;
10705;SDS011;5404;42.656;23.336;2022-07-06T04:17:56;6.97;;;6.32;;
10705;SDS011;5404;42.656;23.336;2022-07-06T04:20:22;11.45;;;5.85;;
10705;SDS011;5404;42.656;23.336;2022-07-06T04:22:49;7.00;;;6.30;;
10705;SDS011;5404;42.656;23.336;2022-07-06T04:25:15;6.75;;;6.05;;
10705;SDS011;5404;42.656;23.336;2022-07-06T04:27:41;6.38;;;5.88;;
10705;SDS011;5404;42.656;23.336;2022-07-06T04:30:07;8.00;;;5.57;;
10705;SDS011;5404;42.656;23.336;2022-07-06T04:32:34;6.45;;;5.47;;
10705;SDS011;5404;42.656;23.336;2022-07-06T04:35:00;6.18;;;5.57;;
10705;SDS011;5404;42.656;23.336;2022-07-06T04:37:26;7.85;;;5.65;;
10705;SDS011;5404;42.656;23.336;2022-07-06T04:39:52;5.65;;;5.15;;
10705;SDS011;5404;42.656;23.336;2022-07-06T04:42:18;6.53;;;5.80;;
10705;SDS011;5404;42.656;23.336;2022-07-06T04:44:43;5.70;;;5.15;;
10705;SDS011;5404;42.656;23.336;2022-07-06T04:47:09;9.18;;;5.38;;
10705;SDS011;5404;42.656;23.336;2022-07-06T04:49:34;8.10;;;5.95;;
10705;SDS011;5404;42.656;23.336;2022-07-06T04:52:00;6.68;;;5.25;;
10705;SDS011;5404;42.656;23.336;2022-07-06T04:54:25;7.50;;;5.15;;
10705;SDS011;5404;42.656;23.336;2022-07-06T04:56:51;6.72;;;5.97;;
10705;SDS011;5404;42.656;23.336;2022-07-06T04:59:17;7.35;;;5.30;;
10705;SDS011;5404;42.656;23.336;2022-07-06T05:01:43;7.13;;;6.40;;
10705;SDS011;5404;42.656;23.336;2022-07-06T05:04:08;7.70;;;6.90;;
10705;SDS011;5404;42.656;23.336;2022-07-06T05:06:34;10.50;;;7.68;;
10705;SDS011;5404;42.656;23.336;2022-07-06T05:08:59;9.73;;;8.73;;
10705;SDS011;5404;42.656;23.336;2022-07-06T05:11:26;14.90;;;10.35;;
10705;SDS011;5404;42.656;23.336;2022-07-06T05:13:52;10.85;;;9.30;;
10705;SDS011;5404;42.656;23.336;2022-07-06T05:16:18;13.93;;;10.38;;
10705;SDS011;5404;42.656;23.336;2022-07-06T05:18:43;10.30;;;8.52;;
10705;SDS011;5404;42.656;23.336;2022-07-06T05:21:09;16.65;;;11.05;;
10705;SDS011;5404;42.656;23.336;2022-07-06T05:23:34;12.98;;;10.40;;
10705;SDS011;5404;42.656;23.336;2022-07-06T05:26:00;15.82;;;10.55;;
10705;SDS011;5404;42.656;23.336;2022-07-06T05:28:25;11.93;;;10.63;;
10705;SDS011;5404;42.656;23.336;2022-07-06T05:30:52;12.23;;;10.32;;
10705;SDS011;5404;42.656;23.336;2022-07-06T05:33:17;13.80;;;10.50;;
10705;SDS011;5404;42.656;23.336;2022-07-06T05:35:43;11.75;;;10.63;;
10705;SDS011;5404;42.656;23.336;2022-07-06T05:38:08;12.85;;;10.18;;
10705;SDS011;5404;42.656;23.336;2022-07-06T05:40:34;13.00;;;9.40;;
10705;SDS011;5404;42.656;23.336;2022-07-06T05:42:59;12.27;;;9.15;;
10705;SDS011;5404;42.656;23.336;2022-07-06T05:45:25;9.50;;;8.63;;
10705;SDS011;5404;42.656;23.336;2022-07-06T05:47:50;16.00;;;12.93;;
10705;SDS011;5404;42.656;23.336;2022-07-06T05:50:34;22.52;;;19.67;;
10705;SDS011;5404;42.656;23.336;2022-07-06T05:53:01;10.02;;;8.35;;
10705;SDS011;5404;42.656;23.336;2022-07-06T05:55:28;8.95;;;8.00;;
10705;SDS011;5404;42.656;23.336;2022-07-06T05:57:54;10.30;;;9.02;;
10705;SDS011;5404;42.656;23.336;2022-07-06T06:00:21;11.02;;;9.48;;
10705;SDS011;5404;42.656;23.336;2022-07-06T06:02:50;9.98;;;8.55;;
10705;SDS011;5404;42.656;23.336;2022-07-06T06:05:16;11.02;;;9.15;;
10705;SDS011;5404;42.656;23.336;2022-07-06T06:07:43;10.23;;;8.82;;
10705;SDS011;5404;42.656;23.336;2022-07-06T06:10:09;11.38;;;8.55;;
10705;SDS011;5404;42.656;23.336;2022-07-06T06:12:37;9.25;;;8.23;;
10705;SDS011;5404;42.656;23.336;2022-07-06T06:15:03;13.10;;;8.60;;
10705;SDS011;5404;42.656;23.336;2022-07-06T06:17:29;8.25;;;7.28;;
10705;SDS011;5404;42.656;23.336;2022-07-06T06:19:55;8.63;;;7.72;;
10705;SDS011;5404;42.656;23.336;2022-07-06T06:22:22;9.95;;;7.93;;
10705;SDS011;5404;42.656;23.336;2022-07-06T06:24:48;33.28;;;29.70;;
10705;SDS011;5404;42.656;23.336;2022-07-06T06:27:13;8.95;;;8.10;;
10705;SDS011;5404;42.656;23.336;2022-07-06T06:29:39;8.93;;;8.02;;
10705;SDS011;5404;42.656;23.336;2022-07-06T06:32:06;9.85;;;8.60;;
10705;SDS011;5404;42.656;23.336;2022-07-06T06:34:32;9.85;;;8.13;;
10705;SDS011;5404;42.656;23.336;2022-07-06T06:36:57;9.48;;;7.90;;
10705;SDS011;5404;42.656;23.336;2022-07-06T06:39:23;9.15;;;8.23;;
10705;SDS011;5404;42.656;23.336;2022-07-06T06:41:48;9.75;;;8.73;;
10705;SDS011;5404;42.656;23.336;2022-07-06T06:44:14;10.13;;;9.00;;
10705;SDS011;5404;42.656;23.336;2022-07-06T06:46:40;11.10;;;10.00;;
10705;SDS011;5404;42.656;23.336;2022-07-06T06:49:06;11.43;;;9.88;;
10705;SDS011;5404;42.656;23.336;2022-07-06T06:51:32;10.95;;;9.95;;
10705;SDS011;5404;42.656;23.336;2022-07-06T06:53:58;13.90;;;10.75;;
10705;SDS011;5404;42.656;23.336;2022-07-06T06:56:23;11.07;;;9.80;;
10705;SDS011;5404;42.656;23.336;2022-07-06T06:58:49;12.23;;;10.90;;
10705;SDS011;5404;42.656;23.336;2022-07-06T07:01:14;11.75;;;10.55;;
10705;SDS011;5404;42.656;23.336;2022-07-06T07:03:40;12.00;;;10.80;;
10705;SDS011;5404;42.656;23.336;2022-07-06T07:06:05;16.40;;;14.73;;
10705;SDS011;5404;42.656;23.336;2022-07-06T07:08:31;16.02;;;14.30;;
10705;SDS011;5404;42.656;23.336;2022-07-06T07:10:57;11.93;;;10.80;;
10705;SDS011;5404;42.656;23.336;2022-07-06T07:13:22;11.60;;;10.50;;
10705;SDS011;5404;42.656;23.336;2022-07-06T07:15:48;13.13;;;10.70;;
10705;SDS011;5404;42.656;23.336;2022-07-06T07:18:13;12.50;;;11.00;;
10705;SDS011;5404;42.656;23.336;2022-07-06T07:20:39;13.50;;;11.73;;
10705;SDS011;5404;42.656;23.336;2022-07-06T07:23:04;13.25;;;11.65;;
10705;SDS011;5404;42.656;23.336;2022-07-06T07:25:30;12.93;;;11.70;;
10705;SDS011;5404;42.656;23.336;2022-07-06T07:27:55;13.52;;;12.00;;
10705;SDS011;5404;42.656;23.336;2022-07-06T07:30:21;14.32;;;12.50;;
10705;SDS011;5404;42.656;23.336;2022-07-06T07:32:46;12.85;;;11.63;;
10705;SDS011;5404;42.656;23.336;2022-07-06T07:35:12;13.90;;;12.38;;
10705;SDS011;5404;42.656;23.336;2022-07-06T07:37:37;12.65;;;10.90;;
10705;SDS011;5404;42.656;23.336;2022-07-06T07:40:03;13.30;;;11.90;;
10705;SDS011;5404;42.656;23.336;2022-07-06T07:42:29;12.77;;;11.52;;
10705;SDS011;5404;42.656;23.336;2022-07-06T07:44:55;13.68;;;11.30;;
10705;SDS011;5404;42.656;23.336;2022-07-06T07:47:20;13.55;;;11.82;;
10705;SDS011;5404;42.656;23.336;2022-07-06T07:49:46;13.38;;;10.13;;
10705;SDS011;5404;42.656;23.336;2022-07-06T07:52:12;12.60;;;11.40;;
10705;SDS011;5404;42.656;23.336;2022-07-06T07:54:37;16.55;;;14.52;;
10705;SDS011;5404;42.656;23.336;2022-07-06T07:57:03;17.38;;;15.63;;
10705;SDS011;5404;42.656;23.336;2022-07-06T07:59:29;13.07;;;11.88;;
10705;SDS011;5404;42.656;23.336;2022-07-06T08:01:54;14.40;;;12.90;;
10705;SDS011;5404;42.656;23.336;2022-07-06T08:04:20;11.88;;;10.77;;
10705;SDS011;5404;42.656;23.336;2022-07-06T08:06:46;11.20;;;9.93;;
10705;SDS011;5404;42.656;23.336;2022-07-06T08:09:12;12.23;;;10.98;;
10705;SDS011;5404;42.656;23.336;2022-07-06T08:11:37;11.48;;;10.48;;
10705;SDS011;5404;42.656;23.336;2022-07-06T08:14:03;13.23;;;11.90;;
10705;SDS011;5404;42.656;23.336;2022-07-06T08:16:29;12.30;;;10.85;;
10705;SDS011;5404;42.656;23.336;2022-07-06T08:18:55;11.65;;;10.43;;
10705;SDS011;5404;42.656;23.336;2022-07-06T08:21:21;11.30;;;10.02;;
10705;SDS011;5404;42.656;23.336;2022-07-06T08:23:47;10.80;;;9.82;;
10705;SDS011;5404;42.656;23.336;2022-07-06T08:26:12;9.43;;;8.63;;
10705;SDS011;5404;42.656;23.336;2022-07-06T08:28:38;10.63;;;9.18;;
10705;SDS011;5404;42.656;23.336;2022-07-06T08:31:04;11.40;;;10.02;;
10705;SDS011;5404;42.656;23.336;2022-07-06T08:33:29;10.20;;;9.30;;
10705;SDS011;5404;42.656;23.336;2022-07-06T08:35:55;21.88;;;19.80;;
10705;SDS011;5404;42.656;23.336;2022-07-06T08:38:20;11.23;;;10.07;;
10705;SDS011;5404;42.656;23.336;2022-07-06T08:40:47;11.15;;;8.70;;
10705;SDS011;5404;42.656;23.336;2022-07-06T08:43:14;13.02;;;11.45;;
10705;SDS011;5404;42.656;23.336;2022-07-06T08:45:41;17.45;;;15.65;;
10705;SDS011;5404;42.656;23.336;2022-07-06T08:48:09;12.18;;;10.10;;
10705;SDS011;5404;42.656;23.336;2022-07-06T08:50:35;10.40;;;9.50;;
10705;SDS011;5404;42.656;23.336;2022-07-06T08:53:01;12.43;;;11.00;;
10705;SDS011;5404;42.656;23.336;2022-07-06T08:55:27;11.38;;;10.38;;
10705;SDS011;5404;42.656;23.336;2022-07-06T08:57:54;10.43;;;9.35;;
10705;SDS011;5404;42.656;23.336;2022-07-06T09:00:20;10.90;;;9.82;;
10705;SDS011;5404;42.656;23.336;2022-07-06T09:02:46;10.85;;;9.95;;
10705;SDS011;5404;42.656;23.336;2022-07-06T09:05:15;17.50;;;15.07;;
10705;SDS011;5404;42.656;23.336;2022-07-06T09:07:42;12.32;;;11.02;;
10705;SDS011;5404;42.656;23.336;2022-07-06T09:10:10;13.93;;;12.52;;
10705;SDS011;5404;42.656;23.336;2022-07-06T09:12:37;13.80;;;12.43;;
10705;SDS011;5404;42.656;23.336;2022-07-06T09:15:02;12.60;;;11.40;;
10705;SDS011;5404;42.656;23.336;2022-07-06T09:17:28;12.57;;;10.82;;
10705;SDS011;5404;42.656;23.336;2022-07-06T09:19:54;10.55;;;9.45;;
10705;SDS011;5404;42.656;23.336;2022-07-06T09:22:25;10.75;;;9.88;;
10705;SDS011;5404;42.656;23.336;2022-07-06T09:24:52;10.48;;;9.52;;
10705;SDS011;5404;42.656;23.336;2022-07-06T09:27:17;13.30;;;11.32;;
10705;SDS011;5404;42.656;23.336;2022-07-06T09:29:43;30.83;;;27.73;;
10705;SDS011;5404;42.656;23.336;2022-07-06T09:32:10;13.57;;;11.95;;
10705;SDS011;5404;42.656;23.336;2022-07-06T09:37:08;10.68;;;9.68;;
10705;SDS011;5404;42.656;23.336;2022-07-06T09:39:34;12.20;;;11.10;;
10705;SDS011;5404;42.656;23.336;2022-07-06T09:42:00;10.50;;;9.57;;
10705;SDS011;5404;42.656;23.336;2022-07-06T09:46:57;9.70;;;8.80;;
10705;SDS011;5404;42.656;23.336;2022-07-06T09:49:25;9.45;;;8.60;;
10705;SDS011;5404;42.656;23.336;2022-07-06T09:51:53;10.15;;;9.25;;
10705;SDS011;5404;42.656;23.336;2022-07-06T09:54:20;10.68;;;9.88;;
10705;SDS011;5404;42.656;23.336;2022-07-06T09:56:46;11.48;;;10.38;;
10705;SDS011;5404;42.656;23.336;2022-07-06T09:59:16;11.73;;;10.73;;
10705;SDS011;5404;42.656;23.336;2022-07-06T10:01:50;12.90;;;11.60;;
10705;SDS011;5404;42.656;23.336;2022-07-06T10:04:17;24.17;;;20.60;;
10705;SDS011;5404;42.656;23.336;2022-07-06T10:06:43;12.77;;;11.77;;
10705;SDS011;5404;42.656;23.336;2022-07-06T10:09:10;12.88;;;11.57;;
10705;SDS011;5404;42.656;23.336;2022-07-06T10:11:40;12.02;;;11.02;;
10705;SDS011;5404;42.656;23.336;2022-07-06T10:14:07;11.30;;;10.30;;
10705;SDS011;5404;42.656;23.336;2022-07-06T10:16:37;11.65;;;10.52;;
10705;SDS011;5404;42.656;23.336;2022-07-06T10:19:06;11.90;;;10.90;;
10705;SDS011;5404;42.656;23.336;2022-07-06T10:21:36;11.93;;;10.93;;
10705;SDS011;5404;42.656;23.336;2022-07-06T10:24:05;14.82;;;11.85;;
10705;SDS011;5404;42.656;23.336;2022-07-06T10:26:35;10.70;;;9.90;;
10705;SDS011;5404;42.656;23.336;2022-07-06T10:29:05;11.52;;;10.63;;
10705;SDS011;5404;42.656;23.336;2022-07-06T10:31:32;13.00;;;10.98;;
10705;SDS011;5404;42.656;23.336;2022-07-06T10:34:00;12.00;;;10.80;;
10705;SDS011;5404;42.656;23.336;2022-07-06T10:36:27;11.38;;;10.38;;
10705;SDS011;5404;42.656;23.336;2022-07-06T10:38:53;13.25;;;10.52;;
10705;SDS011;5404;42.656;23.336;2022-07-06T10:41:29;12.82;;;11.63;;
10705;SDS011;5404;42.656;23.336;2022-07-06T10:43:56;11.82;;;10.88;;
10705;SDS011;5404;42.656;23.336;2022-07-06T10:46:23;11.45;;;10.35;;
10705;SDS011;5404;42.656;23.336;2022-07-06T10:48:52;11.68;;;10.77;;
10705;SDS011;5404;42.656;23.336;2022-07-06T10:51:27;11.73;;;10.63;;
10705;SDS011;5404;42.656;23.336;2022-07-06T10:53:58;10.52;;;9.63;;
10705;SDS011;5404;42.656;23.336;2022-07-06T10:56:36;11.75;;;10.43;;
10705;SDS011;5404;42.656;23.336;2022-07-06T10:59:24;10.30;;;9.45;;
10705;SDS011;5404;42.656;23.336;2022-07-06T11:04:39;11.77;;;10.65;;
10705;SDS011;5404;42.656;23.336;2022-07-06T11:07:09;11.85;;;10.93;;
10705;SDS011;5404;42.656;23.336;2022-07-06T11:09:35;10.63;;;9.82;;
10705;SDS011;5404;42.656;23.336;2022-07-06T11:12:14;12.25;;;11.25;;
10705;SDS011;5404;42.656;23.336;2022-07-06T11:14:41;13.85;;;12.75;;
10705;SDS011;5404;42.656;23.336;2022-07-06T11:17:09;13.20;;;11.90;;
10705;SDS011;5404;42.656;23.336;2022-07-06T11:19:35;11.27;;;10.27;;
10705;SDS011;5404;42.656;23.336;2022-07-06T11:22:08;12.52;;;11.32;;
10705;SDS011;5404;42.656;23.336;2022-07-06T11:24:39;12.20;;;11.25;;
10705;SDS011;5404;42.656;23.336;2022-07-06T11:27:05;12.95;;;11.85;;
10705;SDS011;5404;42.656;23.336;2022-07-06T11:29:32;13.73;;;12.52;;
10705;SDS011;5404;42.656;23.336;2022-07-06T11:32:00;19.20;;;17.35;;
10705;SDS011;5404;42.656;23.336;2022-07-06T11:34:31;14.73;;;13.23;;
10705;SDS011;5404;42.656;23.336;2022-07-06T11:37:03;13.50;;;12.35;;
10705;SDS011;5404;42.656;23.336;2022-07-06T11:39:33;12.45;;;11.30;;
10705;SDS011;5404;42.656;23.336;2022-07-06T11:42:00;13.27;;;12.23;;
10705;SDS011;5404;42.656;23.336;2022-07-06T11:44:29;12.93;;;11.82;;
10705;SDS011;5404;42.656;23.336;2022-07-06T11:46:54;12.90;;;11.90;;
10705;SDS011;5404;42.656;23.336;2022-07-06T11:49:26;13.27;;;12.15;;
10705;SDS011;5404;42.656;23.336;2022-07-06T11:51:51;11.48;;;10.57;;
10705;SDS011;5404;42.656;23.336;2022-07-06T11:54:18;11.52;;;10.63;;
10705;SDS011;5404;42.656;23.336;2022-07-06T11:59:20;12.43;;;11.45;;
10705;SDS011;5404;42.656;23.336;2022-07-06T12:02:03;11.95;;;11.05;;
10705;SDS011;5404;42.656;23.336;2022-07-06T12:04:33;14.48;;;13.18;;
10705;SDS011;5404;42.656;23.336;2022-07-06T12:07:01;12.82;;;11.63;;
10705;SDS011;5404;42.656;23.336;2022-07-06T12:09:32;15.93;;;11.13;;
10705;SDS011;5404;42.656;23.336;2022-07-06T12:11:58;13.32;;;12.23;;
10705;SDS011;5404;42.656;23.336;2022-07-06T12:14:27;12.25;;;11.25;;
10705;SDS011;5404;42.656;23.336;2022-07-06T12:16:53;12.90;;;11.57;;
10705;SDS011;5404;42.656;23.336;2022-07-06T12:19:21;12.93;;;11.77;;
10705;SDS011;5404;42.656;23.336;2022-07-06T12:21:49;12.25;;;10.90;;
10705;SDS011;5404;42.656;23.336;2022-07-06T12:24:25;11.32;;;10.43;;
10705;SDS011;5404;42.656;23.336;2022-07-06T12:26:53;10.23;;;9.43;;
10705;SDS011;5404;42.656;23.336;2022-07-06T12:29:20;9.90;;;8.98;;
10705;SDS011;5404;42.656;23.336;2022-07-06T12:34:13;9.38;;;8.70;;
10705;SDS011;5404;42.656;23.336;2022-07-06T12:39:12;9.65;;;8.75;;
10705;SDS011;5404;42.656;23.336;2022-07-06T12:41:43;9.18;;;8.48;;
10705;SDS011;5404;42.656;23.336;2022-07-06T12:44:13;13.20;;;9.43;;
10705;SDS011;5404;42.656;23.336;2022-07-06T12:46:41;10.30;;;9.07;;
10705;SDS011;5404;42.656;23.336;2022-07-06T12:49:12;8.80;;;8.00;;
10705;SDS011;5404;42.656;23.336;2022-07-06T12:51:48;9.38;;;8.57;;
10705;SDS011;5404;42.656;23.336;2022-07-06T12:54:21;8.98;;;8.27;;
10705;SDS011;5404;42.656;23.336;2022-07-06T12:59:38;7.90;;;7.20;;
10705;SDS011;5404;42.656;23.336;2022-07-06T13:02:06;6.05;;;5.60;;
10705;SDS011;5404;42.656;23.336;2022-07-06T13:04:35;5.75;;;5.22;;
10705;SDS011;5404;42.656;23.336;2022-07-06T13:07:01;7.25;;;5.63;;
10705;SDS011;5404;42.656;23.336;2022-07-06T13:09:28;6.15;;;5.50;;
10705;SDS011;5404;42.656;23.336;2022-07-06T13:11:54;7.18;;;6.47;;
10705;SDS011;5404;42.656;23.336;2022-07-06T13:14:20;6.45;;;5.85;;
10705;SDS011;5404;42.656;23.336;2022-07-06T13:16:46;5.97;;;4.93;;
10705;SDS011;5404;42.656;23.336;2022-07-06T13:19:12;5.90;;;5.30;;
10705;SDS011;5404;42.656;23.336;2022-07-06T13:21:38;4.60;;;4.20;;
10705;SDS011;5404;42.656;23.336;2022-07-06T13:24:04;4.88;;;4.47;;
10705;SDS011;5404;42.656;23.336;2022-07-06T13:26:30;5.15;;;4.05;;
10705;SDS011;5404;42.656;23.336;2022-07-06T13:28:59;4.25;;;3.95;;
10705;SDS011;5404;42.656;23.336;2022-07-06T13:31:25;4.30;;;3.90;;
10705;SDS011;5404;42.656;23.336;2022-07-06T13:33:51;4.07;;;3.75;;
10705;SDS011;5404;42.656;23.336;2022-07-06T13:36:17;3.90;;;3.55;;
10705;SDS011;5404;42.656;23.336;2022-07-06T13:38:42;3.53;;;3.33;;
10705;SDS011;5404;42.656;23.336;2022-07-06T13:41:08;4.28;;;3.70;;
10705;SDS011;5404;42.656;23.336;2022-07-06T13:43:33;3.78;;;3.45;;
10705;SDS011;5404;42.656;23.336;2022-07-06T13:46:03;3.60;;;3.30;;
10705;SDS011;5404;42.656;23.336;2022-07-06T13:48:29;4.32;;;3.42;;
10705;SDS011;5404;42.656;23.336;2022-07-06T13:50:55;3.50;;;3.22;;
10705;SDS011;5404;42.656;23.336;2022-07-06T13:53:21;6.03;;;3.10;;
10705;SDS011;5404;42.656;23.336;2022-07-06T13:55:46;2.70;;;2.50;;
10705;SDS011;5404;42.656;23.336;2022-07-06T13:58:12;7.85;;;2.53;;
10705;SDS011;5404;42.656;23.336;2022-07-06T14:00:37;2.50;;;2.40;;
10705;SDS011;5404;42.656;23.336;2022-07-06T14:03:03;2.95;;;2.05;;
10705;SDS011;5404;42.656;23.336;2022-07-06T14:05:28;1.98;;;1.88;;
10705;SDS011;5404;42.656;23.336;2022-07-06T14:07:55;2.42;;;2.05;;
10705;SDS011;5404;42.656;23.336;2022-07-06T14:10:20;3.42;;;2.15;;
10705;SDS011;5404;42.656;23.336;2022-07-06T14:12:46;1.80;;;1.70;;
10705;SDS011;5404;42.656;23.336;2022-07-06T14:15:11;1.70;;;1.70;;
10705;SDS011;5404;42.656;23.336;2022-07-06T14:17:37;1.85;;;1.77;;
10705;SDS011;5404;42.656;23.336;2022-07-06T14:20:02;1.90;;;1.80;;
10705;SDS011;5404;42.656;23.336;2022-07-06T14:22:28;3.90;;;2.28;;
10705;SDS011;5404;42.656;23.336;2022-07-06T14:24:54;2.17;;;1.60;;
10705;SDS011;5404;42.656;23.336;2022-07-06T14:27:19;1.80;;;1.70;;
10705;SDS011;5404;42.656;23.336;2022-07-06T14:29:45;1.73;;;1.63;;
10705;SDS011;5404;42.656;23.336;2022-07-06T14:32:10;1.90;;;1.80;;
10705;SDS011;5404;42.656;23.336;2022-07-06T14:34:36;1.83;;;1.73;;
10705;SDS011;5404;42.656;23.336;2022-07-06T14:37:02;2.35;;;1.90;;
10705;SDS011;5404;42.656;23.336;2022-07-06T14:39:28;3.90;;;1.65;;
10705;SDS011;5404;42.656;23.336;2022-07-06T14:41:53;2.55;;;1.67;;
10705;SDS011;5404;42.656;23.336;2022-07-06T14:44:18;3.55;;;2.08;;
10705;SDS011;5404;42.656;23.336;2022-07-06T14:46:44;2.58;;;1.45;;